METAR Formatted Surface Weather Observation
Issued by NWS

Home | Current Version | Previous Version | Text Only | Print | Product List | Glossary On
Versions: 1 2 3 4 5 6
000
SPZS31 NSTU 311036
MTRSPP
SPECI NSTU 311033Z 35014KT 7SM TS -SHRA BKN013CB OVC035 28/25 A2970
RMK FRQ LTGIC E-SE=


USA.gov is the U.S. government's official web portal to all federal, state and local government web resources and services.